Time;durP1;ratioP1;P1;durP2;ratioP2;P2;SDS_P1;SDS_P2;PMS_P1;PMS_P2;Temp;Humidity;BMP_temperature;BMP_pressure;BME280_temperature;BME280_humidity;BME280_pressure;Samples;Min_cycle;Max_cycle;Signal;HPM_P1;HPM_P2
2022/03/08 00:02:23;;;;;;;14.85;6.10;;;-1.50;99.90;;;;;;5029970;28;20045;-42
2022/03/08 00:04:49;;;;;;;10.68;6.40;;;-1.50;99.90;;;;;;5030327;28;20049;-41
2022/03/08 00:07:15;;;;;;;11.43;6.03;;;-1.40;99.90;;;;;;5030513;28;20076;-41
2022/03/08 00:09:40;;;;;;;11.18;6.80;;;-1.20;99.90;;;;;;5030226;28;20041;-41
2022/03/08 00:12:07;;;;;;;13.50;6.15;;;-1.00;99.90;;;;;;5029876;28;20488;-41
2022/03/08 00:14:34;;;;;;;12.93;6.22;;;-1.00;99.90;;;;;;5029056;28;20531;-40
2022/03/08 00:17:00;;;;;;;13.10;7.43;;;-1.00;99.90;;;;;;5029266;28;20057;-41
2022/03/08 00:19:26;;;;;;;11.65;6.55;;;-1.00;99.90;;;;;;5029699;28;20061;-40
2022/03/08 00:21:52;;;;;;;13.82;6.35;;;-1.00;99.90;;;;;;5030148;28;20045;-42
2022/03/08 00:24:18;;;;;;;12.13;6.45;;;-1.00;99.90;;;;;;5028495;28;20102;-41
2022/03/08 00:26:45;;;;;;;12.95;6.88;;;-0.90;99.90;;;;;;5030093;28;20054;-42
2022/03/08 00:29:11;;;;;;;12.27;6.68;;;-0.90;99.90;;;;;;5029825;28;20034;-42
2022/03/08 00:31:36;;;;;;;13.10;6.47;;;-1.00;99.90;;;;;;5029991;28;20052;-40
2022/03/08 00:34:03;;;;;;;11.75;7.70;;;-1.00;99.90;;;;;;5029544;28;20045;-40
2022/03/08 00:36:30;;;;;;;12.40;7.35;;;-1.10;99.90;;;;;;5029607;28;20045;-41
2022/03/08 00:38:56;;;;;;;11.88;7.10;;;-1.20;99.90;;;;;;5029913;28;20037;-40
2022/03/08 00:41:22;;;;;;;12.10;7.30;;;-1.20;99.90;;;;;;5029809;28;20755;-42
2022/03/08 00:43:48;;;;;;;13.27;6.60;;;-1.30;99.90;;;;;;5029712;28;20097;-41
2022/03/08 00:46:15;;;;;;;12.32;7.00;;;-1.40;99.90;;;;;;5029500;28;20080;-41
2022/03/08 00:48:41;;;;;;;13.45;7.00;;;-1.50;99.90;;;;;;5029532;28;20112;-40
2022/03/08 00:51:07;;;;;;;14.60;7.68;;;-1.50;99.90;;;;;;5028847;28;20057;-40
2022/03/08 00:53:33;;;;;;;15.50;8.02;;;-1.50;99.90;;;;;;5029402;28;20090;-41
2022/03/08 00:55:59;;;;;;;16.73;8.50;;;-1.60;99.90;;;;;;5029621;28;20037;-40
2022/03/08 00:58:25;;;;;;;14.07;7.88;;;-1.70;99.90;;;;;;5029390;28;20147;-41
2022/03/08 01:00:51;;;;;;;16.50;7.72;;;-0.50;99.90;;;;;;5029453;28;20053;-40
2022/03/08 01:03:17;;;;;;;12.65;8.18;;;-1.80;99.90;;;;;;5028470;28;20107;-41
2022/03/08 01:05:43;;;;;;;18.13;8.35;;;-1.70;99.90;;;;;;5028343;28;20045;-40
2022/03/08 01:08:09;;;;;;;18.73;7.35;;;-1.70;99.90;;;;;;5028600;28;20479;-40
2022/03/08 01:10:35;;;;;;;13.50;7.35;;;-1.70;99.90;;;;;;5028152;28;20458;-41
2022/03/08 01:13:01;;;;;;;14.45;7.22;;;-1.80;99.90;;;;;;5028376;28;20080;-41
2022/03/08 01:15:27;;;;;;;13.48;7.47;;;-1.70;99.90;;;;;;5028178;28;20125;-40
2022/03/08 01:17:55;;;;;;;12.77;7.10;;;-1.60;99.90;;;;;;5029196;28;20761;-42
2022/03/08 01:20:22;;;;;;;13.20;7.15;;;-1.60;99.90;;;;;;5028856;28;20064;-41
2022/03/08 01:22:47;;;;;;;11.40;6.88;;;-1.70;99.90;;;;;;5029139;28;20041;-40
2022/03/08 01:25:15;;;;;;;13.20;7.57;;;-1.80;99.90;;;;;;5028851;28;20053;-40
2022/03/08 01:27:41;;;;;;;14.13;7.70;;;-1.80;99.90;;;;;;5028622;28;20077;-40
2022/03/08 01:30:09;;;;;;;15.30;8.18;;;-1.80;99.90;;;;;;5031006;28;20073;-41
2022/03/08 01:32:35;;;;;;;15.90;7.90;;;-1.90;99.90;;;;;;5031588;28;20041;-42
2022/03/08 01:35:00;;;;;;;15.15;7.50;;;-2.00;99.90;;;;;;5033461;28;20045;-40
2022/03/08 01:37:26;;;;;;;14.68;8.18;;;-2.10;99.90;;;;;;5033258;28;20426;-40
2022/03/08 01:39:52;;;;;;;16.75;8.50;;;-2.20;99.90;;;;;;5033376;28;20042;-40
2022/03/08 01:42:23;;;;;;;16.10;8.00;;;-2.30;99.90;;;;;;5032793;28;20041;-41
2022/03/08 01:44:49;;;;;;;11.95;7.13;;;-2.40;99.90;;;;;;5032396;28;20044;-41
2022/03/08 01:47:21;;;;;;;13.85;7.70;;;-2.50;99.90;;;;;;5032289;28;20041;-40
2022/03/08 01:49:47;;;;;;;14.60;7.85;;;-2.50;99.90;;;;;;5032401;28;20076;-40
2022/03/08 01:52:15;;;;;;;16.48;8.63;;;-2.70;99.90;;;;;;5033083;28;20041;-41
2022/03/08 01:54:42;;;;;;;14.07;8.23;;;-2.50;99.90;;;;;;5032447;28;20045;-41
2022/03/08 01:57:08;;;;;;;15.43;7.63;;;-2.40;99.90;;;;;;5033141;28;20041;-42
2022/03/08 01:59:34;;;;;;;17.42;8.20;;;-2.40;99.90;;;;;;5032750;28;20045;-42
2022/03/08 02:02:00;;;;;;;18.83;8.38;;;-2.40;99.90;;;;;;5033002;28;20081;-41
2022/03/08 02:04:26;;;;;;;18.08;8.05;;;-2.40;99.90;;;;;;5032423;28;20124;-42
2022/03/08 02:06:52;;;;;;;17.83;9.48;;;-2.40;99.90;;;;;;5033039;28;20132;-42
2022/03/08 02:09:18;;;;;;;15.10;8.43;;;-2.40;99.90;;;;;;5032787;28;20124;-41
2022/03/08 02:11:44;;;;;;;18.17;8.88;;;-2.20;99.90;;;;;;5031986;28;20041;-41
2022/03/08 02:14:10;;;;;;;15.20;8.32;;;-2.20;99.90;;;;;;5032686;28;20048;-40
2022/03/08 02:16:36;;;;;;;14.40;8.25;;;-2.10;99.90;;;;;;5032475;28;20038;-43
2022/03/08 02:19:02;;;;;;;19.48;8.90;;;-2.10;99.90;;;;;;5032018;28;20507;-41
2022/03/08 02:21:32;;;;;;;16.85;9.13;;;-2.10;99.90;;;;;;5032190;28;20111;-42
2022/03/08 02:23:57;;;;;;;17.38;8.68;;;-2.10;99.90;;;;;;5032378;28;20103;-42
2022/03/08 02:26:23;;;;;;;17.60;9.10;;;-2.20;99.90;;;;;;5032326;28;20041;-42
2022/03/08 02:28:51;;;;;;;15.20;8.23;;;-2.20;99.90;;;;;;5030702;28;20045;-40
2022/03/08 02:31:17;;;;;;;18.63;10.10;;;-2.40;99.90;;;;;;5032177;28;20076;-41
2022/03/08 02:33:44;;;;;;;19.00;10.18;;;-2.50;99.90;;;;;;5031823;28;20128;-41
2022/03/08 02:36:10;;;;;;;16.75;9.73;;;-2.50;99.90;;;;;;5031993;28;20053;-41
2022/03/08 02:38:36;;;;;;;23.70;10.35;;;-2.50;99.90;;;;;;5032138;28;20037;-42
2022/03/08 02:41:02;;;;;;;20.92;8.50;;;-2.50;99.90;;;;;;5031952;28;20522;-40
2022/03/08 02:43:28;;;;;;;16.95;9.70;;;-2.50;99.90;;;;;;5031700;28;20072;-41
2022/03/08 02:45:54;;;;;;;17.38;10.32;;;-2.50;99.90;;;;;;5031470;28;20095;-42
2022/03/08 02:48:20;;;;;;;18.17;10.25;;;-2.50;99.90;;;;;;5031776;28;20042;-42
2022/03/08 02:50:46;;;;;;;16.00;9.02;;;-2.40;99.90;;;;;;5031481;28;20137;-40
2022/03/08 02:53:11;;;;;;;19.05;8.80;;;-2.30;99.90;;;;;;5032083;28;20044;-42
2022/03/08 02:55:37;;;;;;;22.55;9.82;;;-2.30;99.90;;;;;;5031486;28;20168;-41
2022/03/08 02:58:05;;;;;;;18.02;9.95;;;-2.20;99.90;;;;;;5031731;28;20044;-40
2022/03/08 03:00:32;;;;;;;19.67;8.90;;;-2.20;99.90;;;;;;5031603;28;20060;-40
2022/03/08 03:02:58;;;;;;;19.02;10.00;;;-2.20;99.90;;;;;;5031994;28;20060;-44
2022/03/08 03:05:24;;;;;;;20.25;10.45;;;0.50;99.90;;;;;;5031508;28;20038;-40
2022/03/08 03:07:50;;;;;;;19.33;9.60;;;-2.10;99.90;;;;;;5031410;28;20457;-41
2022/03/08 03:10:18;;;;;;;19.50;10.43;;;-2.20;99.90;;;;;;5031387;28;20491;-41
2022/03/08 03:12:44;;;;;;;19.23;10.63;;;-2.20;99.90;;;;;;5031117;28;20399;-41
2022/03/08 03:15:13;;;;;;;19.55;10.75;;;-2.30;99.90;;;;;;5031464;28;20038;-40
2022/03/08 03:17:39;;;;;;;24.25;10.57;;;-2.30;99.90;;;;;;5031160;28;20033;-42
2022/03/08 03:20:07;;;;;;;24.30;11.48;;;-2.40;99.90;;;;;;5031020;28;20187;-42
2022/03/08 03:22:33;;;;;;;16.80;8.20;;;-2.40;99.90;;;;;;5031306;28;20056;-40
2022/03/08 03:24:59;;;;;;;20.05;9.82;;;-2.40;99.90;;;;;;5030859;28;20561;-40
2022/03/08 03:27:25;;;;;;;19.35;9.48;;;-2.60;99.90;;;;;;5031188;28;20077;-41
2022/03/08 03:29:50;;;;;;;22.25;10.15;;;-2.60;99.90;;;;;;5030928;28;20045;-40
2022/03/08 03:32:16;;;;;;;19.50;10.43;;;-2.60;99.90;;;;;;5031019;28;20037;-40
2022/03/08 03:34:42;;;;;;;20.58;9.90;;;-2.70;99.90;;;;;;5030962;28;20037;-41
2022/03/08 03:37:08;;;;;;;20.10;10.48;;;-2.70;99.90;;;;;;5030946;28;20045;-41
2022/03/08 03:39:34;;;;;;;23.30;10.70;;;-2.70;99.90;;;;;;5030961;28;20144;-41
2022/03/08 03:42:00;;;;;;;21.17;10.00;;;-2.70;99.90;;;;;;5030874;28;20080;-40
2022/03/08 03:44:25;;;;;;;21.13;9.40;;;-2.80;99.90;;;;;;5030795;28;20068;-43
2022/03/08 03:46:51;;;;;;;22.10;10.43;;;-2.70;99.90;;;;;;5030592;28;20061;-42
2022/03/08 03:49:17;;;;;;;21.38;10.77;;;-2.60;99.90;;;;;;5030763;28;20376;-41
2022/03/08 03:51:42;;;;;;;24.13;11.88;;;-2.50;99.90;;;;;;5030137;28;20124;-42
2022/03/08 03:54:08;;;;;;;24.55;11.25;;;-2.50;99.90;;;;;;5030490;28;20050;-41
2022/03/08 03:56:34;;;;;;;25.13;11.13;;;-2.60;99.90;;;;;;5030779;28;20061;-42
2022/03/08 03:59:00;;;;;;;22.38;11.02;;;-2.50;99.90;;;;;;5030052;28;20049;-41
2022/03/08 04:01:25;;;;;;;22.42;11.05;;;-2.60;99.90;;;;;;5030535;28;20045;-41
2022/03/08 04:03:51;;;;;;;21.50;10.18;;;-2.60;99.90;;;;;;5030160;28;20052;-41
2022/03/08 04:06:17;;;;;;;23.77;10.63;;;-2.60;99.90;;;;;;5030390;28;20038;-43
2022/03/08 04:08:43;;;;;;;22.45;10.70;;;-2.70;99.90;;;;;;5030407;28;20044;-44
2022/03/08 04:11:09;;;;;;;22.60;11.35;;;-2.70;99.90;;;;;;5030555;28;20037;-44
2022/03/08 04:13:35;;;;;;;23.40;11.23;;;-2.70;99.90;;;;;;5030594;28;20056;-43
2022/03/08 04:16:00;;;;;;;22.58;11.13;;;-2.70;99.90;;;;;;5030435;28;20479;-44
2022/03/08 04:18:26;;;;;;;21.63;11.30;;;-2.80;99.90;;;;;;5030387;28;20399;-41
2022/03/08 04:20:52;;;;;;;24.48;12.07;;;-2.80;99.90;;;;;;5029589;28;20148;-41
2022/03/08 04:23:18;;;;;;;23.67;11.18;;;-2.70;99.90;;;;;;5030117;28;20049;-42
2022/03/08 04:25:44;;;;;;;20.83;11.07;;;-2.20;99.90;;;;;;5029724;28;20525;-40
2022/03/08 04:28:09;;;;;;;18.90;11.60;;;-2.60;99.90;;;;;;5030042;28;20491;-40
2022/03/08 04:30:35;;;;;;;22.85;12.60;;;-2.60;99.90;;;;;;5030132;28;20034;-41
2022/03/08 04:33:01;;;;;;;21.92;12.32;;;-2.60;99.90;;;;;;5029510;28;20132;-40
2022/03/08 04:35:27;;;;;;;24.17;12.20;;;-2.70;99.90;;;;;;5030062;28;20052;-39
2022/03/08 04:37:52;;;;;;;24.73;12.27;;;-2.80;99.90;;;;;;5029681;28;20629;-40
2022/03/08 04:40:18;;;;;;;22.83;12.55;;;-2.80;99.90;;;;;;5030010;28;20087;-41
2022/03/08 04:42:44;;;;;;;23.75;12.52;;;-2.90;99.90;;;;;;5029734;28;20045;-41
2022/03/08 04:45:12;;;;;;;24.90;12.02;;;-2.90;99.90;;;;;;5029643;28;20045;-40
2022/03/08 04:47:38;;;;;;;28.48;12.50;;;-2.90;99.90;;;;;;5029807;28;20056;-40
2022/03/08 04:50:09;;;;;;;27.48;13.55;;;-2.90;99.90;;;;;;5029635;28;20037;-41
2022/03/08 04:52:34;;;;;;;26.55;12.77;;;-2.90;99.90;;;;;;5029748;28;20108;-41
2022/03/08 04:55:00;;;;;;;25.63;12.57;;;-2.90;99.90;;;;;;5029482;28;20478;-42
2022/03/08 04:57:26;;;;;;;30.23;15.32;;;-2.80;99.90;;;;;;5029490;28;20039;-41
2022/03/08 04:59:52;;;;;;;26.75;12.45;;;-2.90;99.90;;;;;;5029443;28;20487;-41
2022/03/08 05:02:18;;;;;;;24.30;12.55;;;-2.90;99.90;;;;;;5029375;28;20037;-40
2022/03/08 05:04:43;;;;;;;24.52;13.00;;;-2.90;99.90;;;;;;5028670;28;20037;-40
2022/03/08 05:07:09;;;;;;;27.90;13.88;;;-3.00;99.90;;;;;;5029313;28;20407;-41
2022/03/08 05:09:35;;;;;;;22.90;12.52;;;-3.20;99.90;;;;;;5029730;28;20041;-42
2022/03/08 05:12:01;;;;;;;29.02;13.25;;;-3.10;99.90;;;;;;5028983;28;20117;-41
2022/03/08 05:14:26;;;;;;;28.15;13.43;;;-3.10;99.90;;;;;;5029386;28;20049;-41
2022/03/08 05:16:53;;;;;;;23.67;12.73;;;-3.10;99.90;;;;;;5028324;28;20071;-40
2022/03/08 05:19:19;;;;;;;26.23;14.68;;;-3.20;99.90;;;;;;5022189;28;20065;-40
2022/03/08 05:21:44;;;;;;;25.52;13.43;;;-3.20;99.90;;;;;;5023917;28;20067;-39
2022/03/08 05:24:10;;;;;;;25.70;13.98;;;-3.20;99.90;;;;;;5027556;28;20049;-37
2022/03/08 05:26:37;;;;;;;27.52;14.40;;;-3.20;99.90;;;;;;5028817;28;20087;-37
2022/03/08 05:29:07;;;;;;;32.40;13.85;;;-3.20;99.90;;;;;;5028920;28;20041;-37
2022/03/08 05:31:33;;;;;;;28.38;13.88;;;-3.20;99.90;;;;;;5029343;28;20114;-37
2022/03/08 05:34:00;;;;;;;28.83;13.80;;;-3.20;99.90;;;;;;5027179;28;20064;-38
2022/03/08 05:36:26;;;;;;;31.65;14.60;;;-3.10;99.90;;;;;;5028917;28;20041;-36
2022/03/08 05:38:52;;;;;;;29.75;14.63;;;-2.70;99.90;;;;;;5028699;28;20060;-36
2022/03/08 05:41:18;;;;;;;33.40;16.08;;;-3.10;99.90;;;;;;5028748;28;20148;-35
2022/03/08 05:43:44;;;;;;;27.55;14.88;;;-3.00;99.90;;;;;;5028736;28;20064;-35
2022/03/08 05:46:10;;;;;;;32.30;16.02;;;-3.00;99.90;;;;;;5028612;28;20369;-35
2022/03/08 05:48:36;;;;;;;32.10;15.52;;;-3.00;99.90;;;;;;5028303;28;20080;-35
2022/03/08 05:51:02;;;;;;;34.95;16.10;;;-3.00;99.90;;;;;;5028655;28;20041;-34
2022/03/08 05:53:28;;;;;;;33.88;15.10;;;-3.00;99.90;;;;;;5028448;28;20728;-34
2022/03/08 05:55:54;;;;;;;32.72;15.60;;;-3.00;99.90;;;;;;5028663;28;20042;-35
2022/03/08 05:58:20;;;;;;;37.22;16.13;;;-3.00;99.90;;;;;;5028708;28;20637;-35
2022/03/08 06:00:45;;;;;;;28.92;14.60;;;-3.00;99.90;;;;;;5028696;28;20044;-35
2022/03/08 06:03:11;;;;;;;37.60;17.08;;;-3.00;99.90;;;;;;5028549;28;20041;-35
2022/03/08 06:05:37;;;;;;;33.33;16.73;;;-2.90;99.90;;;;;;5028587;28;20038;-36
2022/03/08 06:08:04;;;;;;;32.97;16.13;;;-2.90;99.90;;;;;;5028325;28;20034;-34
2022/03/08 06:10:34;;;;;;;32.05;16.08;;;-2.80;99.90;;;;;;5026594;28;20057;-49
2022/03/08 06:13:00;;;;;;;29.10;16.27;;;-2.90;99.90;;;;;;5028805;28;20085;-38
2022/03/08 06:15:26;;;;;;;37.58;16.50;;;-2.80;99.90;;;;;;5030405;28;20045;-39
2022/03/08 06:17:52;;;;;;;31.65;16.42;;;-1.80;99.90;;;;;;5032678;28;20179;-37
2022/03/08 06:20:18;;;;;;;30.75;15.23;;;-2.50;99.90;;;;;;5032088;28;20444;-43
2022/03/08 06:22:43;;;;;;;30.23;15.63;;;-2.10;99.90;;;;;;5032262;28;20175;-37
2022/03/08 06:25:10;;;;;;;30.52;16.17;;;-1.50;99.90;;;;;;5032251;28;20122;-37
2022/03/08 06:27:35;;;;;;;32.60;16.75;;;-1.00;99.90;;;;;;5032543;28;20042;-37
2022/03/08 06:30:02;;;;;;;32.63;17.15;;;-0.30;99.90;;;;;;5032331;28;20491;-37
2022/03/08 06:32:28;;;;;;;31.88;15.60;;;-0.10;99.90;;;;;;5032227;28;20048;-38
2022/03/08 06:34:54;;;;;;;26.95;13.93;;;-0.30;99.90;;;;;;5032217;28;20042;-37
2022/03/08 06:37:19;;;;;;;26.70;14.73;;;-0.50;99.90;;;;;;5031724;28;20088;-37
2022/03/08 06:39:46;;;;;;;27.27;15.00;;;-0.70;99.90;;;;;;5032188;28;20049;-38
2022/03/08 06:42:12;;;;;;;31.88;14.90;;;-0.80;99.90;;;;;;5032192;28;20384;-37
2022/03/08 06:44:39;;;;;;;27.10;15.23;;;-0.80;99.90;;;;;;5032137;28;20049;-38
2022/03/08 06:47:09;;;;;;;29.60;15.77;;;-0.80;99.90;;;;;;5031947;28;20859;-38
2022/03/08 06:49:37;;;;;;;27.50;12.70;;;-0.90;99.90;;;;;;5032255;28;20037;-38
2022/03/08 06:52:03;;;;;;;25.55;14.65;;;-0.60;99.90;;;;;;5031768;28;20045;-38
2022/03/08 06:54:29;;;;;;;22.73;12.80;;;-0.60;99.90;;;;;;5032043;28;20438;-38
2022/03/08 06:56:55;;;;;;;26.15;14.25;;;-0.40;99.90;;;;;;5032021;28;20052;-38
2022/03/08 06:59:21;;;;;;;24.33;12.93;;;-0.40;99.90;;;;;;5031511;28;20041;-38
2022/03/08 07:01:46;;;;;;;24.80;13.30;;;-0.20;99.90;;;;;;5031730;28;20045;-38
2022/03/08 07:04:12;;;;;;;25.08;13.25;;;-0.10;99.90;;;;;;5031544;28;20045;-38
2022/03/08 07:06:39;;;;;;;22.77;13.35;;;-0.10;99.90;;;;;;5031527;28;20057;-38
2022/03/08 07:09:04;;;;;;;22.73;12.55;;;0.00;99.90;;;;;;5031303;28;20037;-38
2022/03/08 07:11:31;;;;;;;24.77;13.70;;;0.00;99.90;;;;;;5032061;28;20034;-38
2022/03/08 07:13:57;;;;;;;24.42;13.55;;;0.80;99.90;;;;;;5031652;28;20107;-38
2022/03/08 07:16:23;;;;;;;25.90;13.95;;;0.30;99.90;;;;;;5031060;28;20507;-38
2022/03/08 07:18:49;;;;;;;24.92;12.25;;;0.40;99.90;;;;;;5031865;28;20116;-38
2022/03/08 07:21:15;;;;;;;24.88;14.02;;;0.60;99.90;;;;;;5031107;28;20634;-38
2022/03/08 07:23:40;;;;;;;26.50;13.43;;;0.70;99.90;;;;;;5031364;28;20033;-38
2022/03/08 07:26:06;;;;;;;21.80;13.18;;;1.10;99.90;;;;;;5030797;28;20041;-38
2022/03/08 07:28:32;;;;;;;25.52;12.32;;;1.40;99.90;;;;;;5030637;28;20037;-38
2022/03/08 07:30:58;;;;;;;22.58;12.32;;;2.20;99.90;;;;;;5031428;28;20056;-38
2022/03/08 07:33:23;;;;;;;24.45;13.05;;;2.50;99.90;;;;;;5030501;28;20460;-38
2022/03/08 07:35:49;;;;;;;22.27;12.55;;;2.20;99.90;;;;;;5031256;28;20048;-38
2022/03/08 07:38:15;;;;;;;19.17;11.98;;;2.20;99.90;;;;;;5030970;28;20038;-38
2022/03/08 07:40:42;;;;;;;22.20;12.60;;;2.30;99.90;;;;;;5028961;28;20080;-38
2022/03/08 07:43:08;;;;;;;23.33;12.18;;;2.70;99.90;;;;;;5030704;28;20578;-38
2022/03/08 07:45:35;;;;;;;22.75;11.63;;;3.20;99.90;;;;;;5030809;28;20087;-38
2022/03/08 07:48:01;;;;;;;22.70;11.25;;;3.00;99.90;;;;;;5031252;28;20069;-38
2022/03/08 07:50:27;;;;;;;19.75;12.15;;;3.00;99.90;;;;;;5030797;28;20068;-38
2022/03/08 07:52:53;;;;;;;22.42;11.98;;;3.00;99.90;;;;;;5030675;28;20472;-38
2022/03/08 07:55:19;;;;;;;19.10;12.13;;;3.00;99.90;;;;;;5030642;28;20048;-38
2022/03/08 07:57:44;;;;;;;19.67;11.32;;;3.00;99.90;;;;;;5030496;28;20137;-39
2022/03/08 08:00:11;;;;;;;22.00;11.82;;;3.70;99.90;;;;;;5030678;28;20033;-38
2022/03/08 08:02:37;;;;;;;19.50;12.20;;;3.60;99.90;;;;;;5030736;28;20052;-38
2022/03/08 08:05:03;;;;;;;19.75;10.80;;;4.10;99.90;;;;;;5031219;28;20056;-38
2022/03/08 08:07:29;;;;;;;16.33;10.73;;;4.40;99.90;;;;;;5030492;28;20426;-38
2022/03/08 08:09:55;;;;;;;16.83;10.52;;;4.00;99.90;;;;;;5030478;28;20117;-38
2022/03/08 08:12:21;;;;;;;17.50;11.27;;;4.10;99.90;;;;;;5029983;28;20049;-39
2022/03/08 08:14:47;;;;;;;18.85;10.77;;;4.30;99.90;;;;;;5030342;28;20034;-39
2022/03/08 08:17:13;;;;;;;17.33;10.35;;;4.50;99.90;;;;;;5030320;28;20071;-38
2022/03/08 08:19:38;;;;;;;12.70;8.93;;;4.90;99.90;;;;;;5029890;28;20071;-38
2022/03/08 08:22:04;;;;;;;16.38;9.57;;;5.30;99.90;;;;;;5030035;28;20092;-39
2022/03/08 08:24:30;;;;;;;14.80;9.60;;;5.90;99.90;;;;;;5029938;28;20197;-38
2022/03/08 08:26:56;;;;;;;16.48;9.60;;;6.60;99.90;;;;;;5030159;28;20042;-38
2022/03/08 08:29:22;;;;;;;14.65;8.70;;;6.00;99.90;;;;;;5029848;28;20041;-38
2022/03/08 08:31:47;;;;;;;14.85;9.00;;;7.10;99.90;;;;;;5030281;28;20411;-38
2022/03/08 08:34:13;;;;;;;14.00;9.10;;;6.80;99.90;;;;;;5029689;28;20387;-38
2022/03/08 08:36:39;;;;;;;15.27;8.80;;;7.30;99.90;;;;;;5030121;28;20041;-38
2022/03/08 08:39:04;;;;;;;15.07;9.68;;;8.30;99.90;;;;;;5029625;28;20099;-38
2022/03/08 08:41:31;;;;;;;13.57;7.82;;;8.60;99.90;;;;;;5029623;28;20045;-38
2022/03/08 08:43:56;;;;;;;13.88;8.70;;;9.70;99.90;;;;;;5029482;28;20039;-38
2022/03/08 08:46:22;;;;;;;13.57;9.13;;;10.90;99.90;;;;;;5029793;28;20387;-39
2022/03/08 08:48:48;;;;;;;9.98;7.80;;;12.10;97.80;;;;;;5029676;28;20052;-38
2022/03/08 08:51:13;;;;;;;11.15;8.35;;;13.00;93.70;;;;;;5029503;28;20048;-39
2022/03/08 08:53:39;;;;;;;11.63;7.90;;;13.70;89.70;;;;;;5029265;28;20138;-38
2022/03/08 08:56:05;;;;;;;10.63;7.53;;;13.80;86.30;;;;;;5029967;28;20052;-39
2022/03/08 08:58:31;;;;;;;12.63;8.02;;;14.30;83.60;;;;;;5029167;28;20656;-38
2022/03/08 09:00:56;;;;;;;10.32;7.50;;;14.40;79.50;;;;;;5029872;28;20045;-39
2022/03/08 09:03:23;;;;;;;12.05;8.02;;;14.30;77.90;;;;;;5029581;28;20491;-39
2022/03/08 09:05:48;;;;;;;8.57;7.18;;;13.30;78.00;;;;;;5029686;28;20118;-39
2022/03/08 09:08:14;;;;;;;12.45;7.68;;;12.50;79.30;;;;;;5029181;28;20559;-39
2022/03/08 09:10:41;;;;;;;10.43;7.97;;;12.00;81.80;;;;;;5029560;28;20033;-39
2022/03/08 09:13:07;;;;;;;13.23;7.88;;;11.80;83.50;;;;;;5029707;28;20037;-39
2022/03/08 09:15:33;;;;;;;12.93;7.85;;;12.30;84.30;;;;;;5028999;28;20124;-39
2022/03/08 09:17:59;;;;;;;11.52;7.18;;;13.20;83.00;;;;;;5029457;28;20601;-40
2022/03/08 09:20:26;;;;;;;8.80;6.72;;;14.20;79.30;;;;;;5028860;28;20160;-39
2022/03/08 09:22:55;;;;;;;11.25;7.25;;;15.10;76.00;;;;;;5029427;28;20046;-39
2022/03/08 09:25:21;;;;;;;9.18;6.63;;;15.70;71.90;;;;;;5029088;28;20037;-39
2022/03/08 09:27:46;;;;;;;10.00;7.78;;;15.90;70.60;;;;;;5029365;28;20477;-39
2022/03/08 09:30:12;;;;;;;9.50;6.82;;;16.00;67.60;;;;;;5029119;28;20042;-39
2022/03/08 09:32:38;;;;;;;8.40;6.82;;;15.70;68.60;;;;;;5028854;28;20396;-39
2022/03/08 09:35:04;;;;;;;9.50;5.55;;;15.90;68.10;;;;;;5029222;28;20033;-39
2022/03/08 09:37:30;;;;;;;9.27;6.75;;;15.60;66.70;;;;;;5029114;28;20037;-39
2022/03/08 09:39:56;;;;;;;9.70;6.40;;;14.80;67.00;;;;;;5028601;28;20584;-39
2022/03/08 09:42:22;;;;;;;9.93;7.00;;;14.20;68.30;;;;;;5028747;28;20045;-40
2022/03/08 09:44:48;;;;;;;8.93;6.05;;;14.10;68.60;;;;;;5029179;28;20046;-39
2022/03/08 09:47:15;;;;;;;13.02;6.93;;;14.10;67.80;;;;;;5029096;28;20383;-39
2022/03/08 09:49:41;;;;;;;7.13;5.75;;;14.60;65.90;;;;;;5028583;28;20041;-39
2022/03/08 09:52:07;;;;;;;10.00;6.22;;;15.00;64.20;;;;;;5032877;28;20144;-39
2022/03/08 09:54:33;;;;;;;7.05;5.70;;;15.00;62.80;;;;;;5032859;28;20037;-39
2022/03/08 09:56:59;;;;;;;7.80;6.00;;;15.00;63.30;;;;;;5033096;28;20052;-39
2022/03/08 09:59:29;;;;;;;8.55;5.82;;;15.40;63.20;;;;;;5032561;28;20037;-39
2022/03/08 10:01:55;;;;;;;10.40;5.72;;;15.50;62.50;;;;;;5033302;28;20068;-39
2022/03/08 10:04:21;;;;;;;10.23;6.05;;;15.60;62.20;;;;;;5031267;28;20772;-39
2022/03/08 10:06:50;;;;;;;9.07;5.55;;;15.80;61.00;;;;;;5032631;28;20045;-39
2022/03/08 10:09:18;;;;;;;7.15;4.97;;;15.70;58.90;;;;;;5032592;28;20041;-40
2022/03/08 10:11:44;;;;;;;7.75;5.25;;;15.20;61.30;;;;;;5032691;28;20041;-39
2022/03/08 10:14:26;;;;;;;6.10;5.28;;;14.10;61.90;;;;;;5033002;28;20037;-39
2022/03/08 10:16:53;;;;;;;7.82;5.30;;;13.80;63.40;;;;;;5032572;28;20399;-39
2022/03/08 10:19:19;;;;;;;6.22;5.15;;;13.50;65.30;;;;;;5032245;28;20057;-39
2022/03/08 10:21:51;;;;;;;6.82;3.83;;;13.50;64.70;;;;;;5032370;28;20373;-39
2022/03/08 10:24:28;;;;;;;5.70;3.95;;;13.80;63.90;;;;;;5032579;28;20042;-39
2022/03/08 10:27:03;;;;;;;8.57;3.97;;;14.20;62.90;;;;;;5032626;28;20045;-39
2022/03/08 10:29:32;;;;;;;7.05;4.55;;;14.60;61.40;;;;;;5032307;28;20030;-39
2022/03/08 10:32:06;;;;;;;6.65;4.68;;;14.60;60.20;;;;;;5032438;28;20038;-39
2022/03/08 10:34:33;;;;;;;7.15;4.07;;;14.30;60.00;;;;;;5032025;28;20042;-39
2022/03/08 10:37:07;;;;;;;5.22;3.95;;;14.30;59.80;;;;;;5032213;28;20041;-39
2022/03/08 10:39:33;;;;;;;6.38;4.22;;;14.40;58.50;;;;;;5031839;28;20041;-39
2022/03/08 10:42:00;;;;;;;7.82;4.07;;;14.70;58.20;;;;;;5032286;28;20042;-39
2022/03/08 10:44:39;;;;;;;5.68;4.35;;;15.00;57.00;;;;;;5031889;28;20041;-39
2022/03/08 10:47:10;;;;;;;6.45;4.07;;;15.30;57.30;;;;;;5031781;28;20088;-39
2022/03/08 10:49:51;;;;;;;8.63;4.45;;;15.50;56.00;;;;;;5031035;28;20040;-39
2022/03/08 10:52:24;;;;;;;5.45;3.78;;;15.50;56.00;;;;;;5031166;28;20037;-39
2022/03/08 10:54:50;;;;;;;6.45;4.30;;;15.60;55.40;;;;;;5031778;28;20045;-38
2022/03/08 10:57:16;;;;;;;6.20;3.83;;;15.70;55.30;;;;;;5030197;28;20045;-39
2022/03/08 10:59:54;;;;;;;7.15;4.13;;;15.50;55.60;;;;;;5030236;28;20123;-39
2022/03/08 11:02:24;;;;;;;6.88;4.38;;;15.30;55.90;;;;;;5031239;28;20048;-39
2022/03/08 11:05:09;;;;;;;6.45;4.30;;;15.10;56.40;;;;;;5030661;28;20080;-39
2022/03/08 11:07:36;;;;;;;7.13;4.30;;;14.70;55.90;;;;;;5030826;28;20050;-39
2022/03/08 11:10:08;;;;;;;5.55;3.80;;;14.20;56.30;;;;;;5030655;28;20059;-38
2022/03/08 11:12:34;;;;;;;7.90;4.45;;;13.10;55.70;;;;;;5030401;28;20048;-38
2022/03/08 11:15:02;;;;;;;6.78;3.72;;;12.00;56.90;;;;;;5030461;28;20048;-38
2022/03/08 11:17:28;;;;;;;7.30;4.30;;;11.20;58.30;;;;;;5031115;28;20057;-38
2022/03/08 11:19:56;;;;;;;6.68;4.35;;;11.30;59.90;;;;;;5031019;28;20564;-38
2022/03/08 11:22:23;;;;;;;8.88;4.32;;;10.10;60.90;;;;;;5031325;28;20046;-39
2022/03/08 11:24:50;;;;;;;6.78;4.07;;;9.80;61.80;;;;;;5030774;28;20063;-38
2022/03/08 11:27:16;;;;;;;7.82;3.60;;;9.80;62.60;;;;;;5031311;28;20044;-39
2022/03/08 11:29:42;;;;;;;5.75;3.28;;;9.70;62.20;;;;;;5030813;28;20084;-38
2022/03/08 11:32:16;;;;;;;5.43;4.15;;;9.50;62.60;;;;;;5029964;28;20053;-39
2022/03/08 11:34:50;;;;;;;7.20;3.90;;;9.30;63.90;;;;;;5030800;28;20034;-38
2022/03/08 11:37:20;;;;;;;7.28;3.83;;;9.30;65.30;;;;;;5031257;28;20055;-38
2022/03/08 11:40:10;;;;;;;5.25;3.38;;;9.20;65.20;;;;;;5030649;28;20124;-38
2022/03/08 11:42:40;;;;;;;5.72;3.40;;;9.20;65.00;;;;;;5030593;28;20037;-38
2022/03/08 11:45:11;;;;;;;5.60;3.03;;;9.10;65.20;;;;;;5030880;28;20454;-38
2022/03/08 11:47:46;;;;;;;4.45;2.97;;;9.10;65.20;;;;;;5030744;28;20088;-38
2022/03/08 11:50:24;;;;;;;4.82;3.30;;;9.10;65.00;;;;;;5030341;28;20574;-38
2022/03/08 11:53:11;;;;;;;7.15;2.92;;;9.10;64.60;;;;;;5030559;28;20049;-38
2022/03/08 11:55:47;;;;;;;5.78;2.92;;;9.00;65.80;;;;;;5029744;28;20041;-38
2022/03/08 11:58:20;;;;;;;5.47;2.72;;;9.00;66.20;;;;;;5030175;28;20388;-38
2022/03/08 12:00:59;;;;;;;4.18;2.65;;;9.00;67.00;;;;;;5030137;28;20098;-38
2022/03/08 12:03:28;;;;;;;5.28;2.75;;;9.10;65.70;;;;;;5030087;28;20403;-38
2022/03/08 12:06:01;;;;;;;4.35;2.65;;;9.00;65.30;;;;;;5029815;28;20041;-38
2022/03/08 12:08:27;;;;;;;3.72;2.70;;;9.00;65.50;;;;;;5030374;28;20522;-38
2022/03/08 12:10:58;;;;;;;3.92;2.55;;;9.10;65.70;;;;;;5030013;28;20081;-38
2022/03/08 12:13:44;;;;;;;6.70;2.72;;;9.30;65.70;;;;;;5029765;28;20472;-38
2022/03/08 12:16:09;;;;;;;7.93;3.25;;;9.10;67.00;;;;;;5030301;28;20047;-38
2022/03/08 12:18:45;;;;;;;5.75;3.03;;;8.80;67.60;;;;;;5030091;28;20128;-38
2022/03/08 12:21:17;;;;;;;5.03;3.03;;;9.00;68.10;;;;;;5029791;28;20057;-38
2022/03/08 12:23:49;;;;;;;7.70;3.00;;;8.90;67.80;;;;;;5029689;28;20129;-38
2022/03/08 12:27:00;;;;;;;5.40;3.03;;;9.40;68.00;;;;;;5027694;28;20064;-38
2022/03/08 12:29:36;;;;;;;5.68;2.65;;;9.00;65.60;;;;;;5033036;28;20529;-38
2022/03/08 12:32:03;;;;;;;4.88;2.83;;;9.00;66.50;;;;;;5029279;28;20387;-38
2022/03/08 12:34:47;;;;;;;5.35;2.90;;;9.00;66.40;;;;;;5029559;28;20475;-38
2022/03/08 12:37:19;;;;;;;4.82;2.75;;;9.00;66.20;;;;;;5030249;28;20084;-38
2022/03/08 12:40:21;;;;;;;5.95;3.00;;;9.10;66.00;;;;;;5028382;28;20053;-38